Time;durP1;ratioP1;P1;durP2;ratioP2;P2;SDS_P1;SDS_P2;PMS_P1;PMS_P2;Temp;Humidity;BMP_temperature;BMP_pressure;BME280_temperature;BME280_humidity;BME280_pressure;Samples;Min_cycle;Max_cycle;Signal;HPM_P1;HPM_P2
2023/06/16 00:01:04;;;;;;;2.85;2.47;;;25.10;47.30;;;;;;5052922;28;20666;-57
2023/06/16 00:03:33;;;;;;;4.05;2.78;;;25.10;47.30;;;;;;5053897;28;20205;-58
2023/06/16 00:06:03;;;;;;;3.63;2.97;;;25.10;47.30;;;;;;5052759;28;20201;-57
2023/06/16 00:08:30;;;;;;;3.33;2.70;;;25.10;47.30;;;;;;5054030;28;20171;-58
2023/06/16 00:10:56;;;;;;;2.95;2.75;;;25.10;47.30;;;;;;5053473;28;20171;-58
2023/06/16 00:13:22;;;;;;;2.75;2.50;;;25.10;47.40;;;;;;5051747;28;20174;-58
2023/06/16 00:15:47;;;;;;;2.50;2.30;;;25.10;47.30;;;;;;5053452;28;20175;-57
2023/06/16 00:18:13;;;;;;;2.70;2.50;;;25.10;47.30;;;;;;5053527;28;20171;-57
2023/06/16 00:20:38;;;;;;;3.25;2.45;;;25.10;48.00;;;;;;5052994;28;20218;-57
2023/06/16 00:23:08;;;;;;;2.65;2.45;;;25.10;47.30;;;;;;5053334;28;20194;-57
2023/06/16 00:25:33;;;;;;;2.60;2.40;;;25.10;47.30;;;;;;5053541;28;20210;-57
2023/06/16 00:27:59;;;;;;;2.75;2.42;;;25.10;47.30;;;;;;5053017;28;20194;-57
2023/06/16 00:30:25;;;;;;;2.55;2.35;;;25.10;47.30;;;;;;5053564;28;20195;-57
2023/06/16 00:32:50;;;;;;;3.58;2.75;;;25.10;47.30;;;;;;5053661;28;20175;-57
2023/06/16 00:35:16;;;;;;;3.15;2.35;;;25.00;47.30;;;;;;5052503;28;20186;-57
2023/06/16 00:37:41;;;;;;;2.58;2.38;;;25.00;47.30;;;;;;5053173;28;20630;-57
2023/06/16 00:40:08;;;;;;;3.40;2.58;;;25.00;47.30;;;;;;5052878;28;20206;-57
2023/06/16 00:42:33;;;;;;;3.03;2.75;;;25.00;47.30;;;;;;5052488;28;20202;-58
2023/06/16 00:44:59;;;;;;;2.70;2.50;;;25.10;47.30;;;;;;5052877;28;20167;-57
2023/06/16 00:47:25;;;;;;;3.03;2.53;;;25.00;47.30;;;;;;5053311;28;20193;-57
2023/06/16 00:49:50;;;;;;;2.85;2.50;;;25.00;47.90;;;;;;5052488;28;20630;-57
2023/06/16 00:52:16;;;;;;;3.53;2.38;;;25.00;47.30;;;;;;5052756;28;20175;-57
2023/06/16 00:54:41;;;;;;;2.88;2.40;;;25.10;47.30;;;;;;5051830;28;20185;-57
2023/06/16 00:57:07;;;;;;;2.90;2.60;;;25.00;47.30;;;;;;5051888;28;20163;-57
2023/06/16 00:59:32;;;;;;;2.70;2.50;;;25.00;47.30;;;;;;5052040;28;20629;-57
2023/06/16 01:01:58;;;;;;;2.45;2.05;;;25.00;47.30;;;;;;5051471;28;20654;-58
2023/06/16 01:04:24;;;;;;;2.70;2.50;;;25.00;47.30;;;;;;5052461;28;20712;-58
2023/06/16 01:06:58;;;;;;;3.13;2.60;;;25.00;47.30;;;;;;5051896;28;20171;-57
2023/06/16 01:09:31;;;;;;;2.78;2.58;;;25.00;47.30;;;;;;5052130;28;20174;-57
2023/06/16 01:12:12;;;;;;;2.92;2.30;;;25.00;47.30;;;;;;5050711;28;20198;-57
2023/06/16 01:14:46;;;;;;;3.45;2.95;;;25.00;47.30;;;;;;5052749;28;20622;-57
2023/06/16 01:17:11;;;;;;;2.83;2.63;;;25.00;47.30;;;;;;5050623;28;20179;-57
2023/06/16 01:19:45;;;;;;;3.13;2.58;;;25.00;47.30;;;;;;5051482;28;20197;-57
2023/06/16 01:22:39;;;;;;;2.78;2.58;;;25.00;47.30;;;;;;5052412;28;20185;-57
2023/06/16 01:25:07;;;;;;;2.72;2.53;;;25.00;47.30;;;;;;5050822;28;20179;-56
2023/06/16 01:27:33;;;;;;;2.35;2.15;;;25.00;47.30;;;;;;5051746;28;20269;-57
2023/06/16 01:29:58;;;;;;;2.25;2.03;;;25.00;47.30;;;;;;5051415;28;20539;-57
2023/06/16 01:32:25;;;;;;;2.67;2.47;;;25.00;47.30;;;;;;5052014;28;20630;-57
2023/06/16 01:34:51;;;;;;;3.22;2.47;;;24.90;47.30;;;;;;5051643;28;20187;-58
2023/06/16 01:37:18;;;;;;;3.05;2.75;;;24.90;47.30;;;;;;5050424;28;20331;-57
2023/06/16 01:39:45;;;;;;;2.50;2.30;;;25.00;47.30;;;;;;5052498;28;20648;-57
2023/06/16 01:42:11;;;;;;;2.63;2.42;;;24.90;47.30;;;;;;5051054;28;20630;-58
2023/06/16 01:44:36;;;;;;;2.97;2.60;;;24.90;47.30;;;;;;5051997;28;20190;-60
2023/06/16 01:47:02;;;;;;;2.60;2.40;;;24.90;47.30;;;;;;5050935;28;20179;-57
2023/06/16 01:49:27;;;;;;;2.65;2.45;;;24.90;47.30;;;;;;5052669;28;20175;-57
2023/06/16 01:51:53;;;;;;;2.80;2.60;;;24.90;47.30;;;;;;5050760;28;20229;-57
2023/06/16 01:54:18;;;;;;;2.40;2.20;;;24.90;47.20;;;;;;5052251;28;20612;-59
2023/06/16 01:56:44;;;;;;;2.63;2.30;;;24.90;47.30;;;;;;5052520;28;20246;-59
2023/06/16 01:59:09;;;;;;;2.95;2.67;;;24.90;47.30;;;;;;5050410;28;20237;-59
2023/06/16 02:01:45;;;;;;;2.90;2.70;;;24.90;47.20;;;;;;5052396;28;20233;-59
2023/06/16 02:04:19;;;;;;;3.35;3.05;;;24.90;47.30;;;;;;5050856;28;20190;-59
2023/06/16 02:06:49;;;;;;;2.67;2.47;;;24.90;47.20;;;;;;5050720;28;20186;-59
2023/06/16 02:09:16;;;;;;;2.90;2.70;;;24.90;47.20;;;;;;5050667;28;20622;-59
2023/06/16 02:11:41;;;;;;;3.22;2.83;;;24.90;47.20;;;;;;5050970;28;20199;-59
2023/06/16 02:14:07;;;;;;;2.85;2.65;;;24.90;47.20;;;;;;5049961;28;20214;-58
2023/06/16 02:16:42;;;;;;;2.90;2.70;;;24.80;47.20;;;;;;5051177;28;20645;-59
2023/06/16 02:19:09;;;;;;;2.97;2.78;;;24.80;47.20;;;;;;5052065;28;20167;-58
2023/06/16 02:21:36;;;;;;;2.70;2.50;;;24.80;47.20;;;;;;5052165;28;20218;-58
2023/06/16 02:24:01;;;;;;;3.88;2.90;;;24.80;47.20;;;;;;5055792;28;20221;-58
2023/06/16 02:26:27;;;;;;;2.70;2.50;;;24.80;47.20;;;;;;5055525;28;20179;-58
2023/06/16 02:28:52;;;;;;;2.90;2.70;;;24.80;47.10;;;;;;5055831;28;20175;-59
2023/06/16 02:31:18;;;;;;;3.58;2.72;;;24.80;47.10;;;;;;5055763;28;20233;-59
2023/06/16 02:33:44;;;;;;;3.65;3.05;;;24.80;47.20;;;;;;5055070;28;20168;-59
2023/06/16 02:36:10;;;;;;;3.22;2.83;;;24.80;47.20;;;;;;5055041;28;20698;-59
2023/06/16 02:38:36;;;;;;;2.78;2.58;;;24.80;47.10;;;;;;5055674;28;20194;-59
2023/06/16 02:41:01;;;;;;;2.92;2.70;;;24.80;47.10;;;;;;5054615;28;20207;-59
2023/06/16 02:43:27;;;;;;;3.08;2.78;;;24.80;47.80;;;;;;5055453;28;20676;-60
2023/06/16 02:45:53;;;;;;;3.17;2.88;;;24.80;47.10;;;;;;5055670;28;20654;-59
2023/06/16 02:48:18;;;;;;;2.83;2.60;;;24.80;47.10;;;;;;5054526;28;20221;-59
2023/06/16 02:50:44;;;;;;;3.22;2.85;;;24.80;47.10;;;;;;5055437;28;20167;-59
2023/06/16 02:53:09;;;;;;;2.75;2.55;;;24.80;47.10;;;;;;5055153;28;20536;-59
2023/06/16 02:55:35;;;;;;;3.25;2.95;;;24.80;47.10;;;;;;5054651;28;20310;-58
2023/06/16 02:58:01;;;;;;;2.95;2.75;;;24.80;47.10;;;;;;5054865;28;20178;-59
2023/06/16 03:00:27;;;;;;;3.50;3.17;;;24.80;47.10;;;;;;5055293;28;20264;-59
2023/06/16 03:02:52;;;;;;;3.15;2.55;;;24.80;47.10;;;;;;5054607;28;20179;-59
2023/06/16 03:05:18;;;;;;;2.90;2.60;;;24.80;47.00;;;;;;5054762;28;20174;-59
2023/06/16 03:07:44;;;;;;;3.03;2.83;;;24.80;47.10;;;;;;5054846;28;20312;-59
2023/06/16 03:10:10;;;;;;;3.13;2.88;;;24.60;47.00;;;;;;5053999;28;20252;-59
2023/06/16 03:12:36;;;;;;;2.50;2.30;;;24.70;47.00;;;;;;5054986;28;20654;-59
2023/06/16 03:15:01;;;;;;;3.97;3.00;;;24.70;47.00;;;;;;5054763;28;20167;-59
2023/06/16 03:17:27;;;;;;;4.22;3.10;;;24.70;47.00;;;;;;5054327;28;20618;-59
2023/06/16 03:19:53;;;;;;;2.90;2.70;;;24.70;47.00;;;;;;5054888;28;20536;-59
2023/06/16 03:22:18;;;;;;;3.80;3.50;;;24.70;47.00;;;;;;5054481;28;20260;-59
2023/06/16 03:24:44;;;;;;;3.22;3.03;;;24.70;47.00;;;;;;5053989;28;20175;-59
2023/06/16 03:27:12;;;;;;;3.83;2.88;;;24.70;47.00;;;;;;5054358;28;20183;-58
2023/06/16 03:29:38;;;;;;;3.92;2.67;;;24.70;47.00;;;;;;5054839;28;20183;-59
2023/06/16 03:32:06;;;;;;;3.17;2.70;;;24.70;47.00;;;;;;5053881;28;20681;-59
2023/06/16 03:34:32;;;;;;;2.75;2.55;;;24.70;47.00;;;;;;5053742;28;20528;-59
2023/06/16 03:36:58;;;;;;;2.92;2.72;;;24.70;47.00;;;;;;5053287;28;20231;-59
2023/06/16 03:39:24;;;;;;;3.00;2.70;;;24.70;47.00;;;;;;5054524;28;20267;-59
2023/06/16 03:41:49;;;;;;;2.97;2.35;;;24.70;47.00;;;;;;5054550;28;20214;-59
2023/06/16 03:44:15;;;;;;;3.35;3.05;;;24.70;47.00;;;;;;5053611;28;20908;-58
2023/06/16 03:46:40;;;;;;;2.78;2.58;;;24.70;47.00;;;;;;5054579;28;20179;-59
2023/06/16 03:49:07;;;;;;;3.25;2.92;;;24.60;46.90;;;;;;5054206;28;20171;-58
2023/06/16 03:51:33;;;;;;;4.05;3.08;;;24.60;46.90;;;;;;5053564;28;20186;-58
2023/06/16 03:53:59;;;;;;;3.20;3.00;;;24.60;46.90;;;;;;5052685;28;20540;-59
2023/06/16 03:56:24;;;;;;;3.00;2.75;;;24.70;47.00;;;;;;5054385;28;20175;-59
2023/06/16 03:58:50;;;;;;;3.10;2.80;;;24.60;46.90;;;;;;5053413;28;20630;-59
2023/06/16 04:01:16;;;;;;;3.30;3.00;;;24.70;46.90;;;;;;5053871;28;20210;-59
2023/06/16 04:03:41;;;;;;;2.83;2.63;;;24.60;47.00;;;;;;5052993;28;20183;-59
2023/06/16 04:06:07;;;;;;;3.30;3.00;;;24.60;46.90;;;;;;5052939;28;20547;-59
2023/06/16 04:08:32;;;;;;;3.00;2.80;;;24.70;46.90;;;;;;5053814;28;20549;-59
2023/06/16 04:10:58;;;;;;;2.83;2.63;;;24.60;47.00;;;;;;5053505;28;20636;-58
2023/06/16 04:13:27;;;;;;;3.50;2.95;;;24.70;46.90;;;;;;5053290;28;20168;-59
2023/06/16 04:15:52;;;;;;;3.45;3.15;;;24.70;47.00;;;;;;5053873;28;20175;-59
2023/06/16 04:18:18;;;;;;;2.92;2.72;;;24.60;46.90;;;;;;5053470;28;20682;-59
2023/06/16 04:20:43;;;;;;;3.05;2.72;;;24.70;46.90;;;;;;5053041;28;20643;-58
2023/06/16 04:23:09;;;;;;;2.85;2.65;;;24.60;47.00;;;;;;5053544;28;20206;-58
2023/06/16 04:25:37;;;;;;;3.28;2.97;;;24.70;46.90;;;;;;5053806;28;20183;-58
2023/06/16 04:28:02;;;;;;;3.17;2.92;;;24.70;47.00;;;;;;5052846;28;20199;-58
2023/06/16 04:30:30;;;;;;;2.95;2.75;;;24.60;47.00;;;;;;5053644;28;20592;-58
2023/06/16 04:32:58;;;;;;;3.45;3.25;;;24.70;47.00;;;;;;5053127;28;20171;-59
2023/06/16 04:35:27;;;;;;;2.97;2.53;;;24.60;47.00;;;;;;5052703;28;20178;-59
2023/06/16 04:37:53;;;;;;;3.40;3.08;;;24.60;47.10;;;;;;5053201;28;20313;-59
2023/06/16 04:40:19;;;;;;;3.75;2.80;;;24.60;47.00;;;;;;5052564;28;20210;-58
2023/06/16 04:42:44;;;;;;;3.20;2.90;;;24.60;47.10;;;;;;5053306;28;20167;-58
2023/06/16 04:45:10;;;;;;;3.20;3.00;;;24.60;47.10;;;;;;5052945;28;20220;-59
2023/06/16 04:47:36;;;;;;;3.45;2.83;;;24.60;47.10;;;;;;5052558;28;20691;-58
2023/06/16 04:50:02;;;;;;;3.13;2.83;;;24.60;47.20;;;;;;5053083;28;20186;-58
2023/06/16 04:52:27;;;;;;;3.35;3.05;;;24.60;47.30;;;;;;5053117;28;20305;-58
2023/06/16 04:54:53;;;;;;;5.05;3.03;;;24.60;47.10;;;;;;5052645;28;20254;-58
2023/06/16 04:57:19;;;;;;;3.28;2.97;;;24.60;47.20;;;;;;5052911;28;20175;-58
2023/06/16 04:59:45;;;;;;;3.08;2.85;;;24.60;47.10;;;;;;5053140;28;20241;-59
2023/06/16 05:02:10;;;;;;;3.63;3.05;;;24.60;47.20;;;;;;5051714;28;20524;-59
2023/06/16 05:04:37;;;;;;;3.28;2.97;;;24.60;47.20;;;;;;5052993;28;20249;-58
2023/06/16 05:07:03;;;;;;;3.40;3.10;;;24.60;47.20;;;;;;5052585;28;20259;-58
2023/06/16 05:09:29;;;;;;;2.95;2.75;;;24.60;47.20;;;;;;5052378;28;20178;-59
2023/06/16 05:11:55;;;;;;;3.55;3.22;;;24.60;47.20;;;;;;5053025;28;20175;-59
2023/06/16 05:14:20;;;;;;;3.13;2.75;;;24.60;47.20;;;;;;5052924;28;20182;-58
2023/06/16 05:16:46;;;;;;;3.00;2.80;;;24.70;47.30;;;;;;5052186;28;20175;-58
2023/06/16 05:19:11;;;;;;;3.25;3.03;;;24.60;47.20;;;;;;5052609;28;20167;-58
2023/06/16 05:21:37;;;;;;;3.15;2.85;;;24.60;47.20;;;;;;5052582;28;20222;-59
2023/06/16 05:24:03;;;;;;;3.25;2.95;;;24.60;47.30;;;;;;5051927;28;20254;-58
2023/06/16 05:26:28;;;;;;;3.72;3.42;;;24.60;47.30;;;;;;5052930;28;20179;-59
2023/06/16 05:28:54;;;;;;;3.67;3.38;;;24.60;47.30;;;;;;5052805;28;20262;-59
2023/06/16 05:31:19;;;;;;;4.00;3.25;;;24.60;47.30;;;;;;5051879;28;20261;-59
2023/06/16 05:33:45;;;;;;;3.40;3.10;;;24.60;47.30;;;;;;5052772;28;20258;-59
2023/06/16 05:36:10;;;;;;;3.22;3.03;;;24.60;47.30;;;;;;5052168;28;20177;-60
2023/06/16 05:38:36;;;;;;;2.97;2.72;;;24.60;47.30;;;;;;5051919;28;20595;-59
2023/06/16 05:41:01;;;;;;;3.35;3.05;;;24.60;47.30;;;;;;5052243;28;20729;-59
2023/06/16 05:43:27;;;;;;;3.53;3.22;;;24.60;47.40;;;;;;5051731;28;20258;-59
2023/06/16 05:45:52;;;;;;;3.30;3.00;;;24.60;47.30;;;;;;5052655;28;20254;-59
2023/06/16 05:48:18;;;;;;;2.88;2.50;;;24.60;47.40;;;;;;5052213;28;20619;-59
2023/06/16 05:50:43;;;;;;;4.05;2.75;;;24.60;47.40;;;;;;5051846;28;20487;-59
2023/06/16 05:53:09;;;;;;;3.65;3.22;;;24.60;47.30;;;;;;5052669;28;20536;-59
2023/06/16 05:55:34;;;;;;;3.53;2.67;;;24.60;47.40;;;;;;5052583;28;20190;-59
2023/06/16 05:58:00;;;;;;;3.33;3.00;;;24.60;47.40;;;;;;5054418;28;20254;-59
2023/06/16 06:00:26;;;;;;;4.22;3.35;;;24.60;47.40;;;;;;5056329;28;20219;-59
2023/06/16 06:02:55;;;;;;;3.05;2.78;;;24.60;47.50;;;;;;5056500;28;20562;-60
2023/06/16 06:05:20;;;;;;;3.67;3.38;;;24.60;47.50;;;;;;5055116;28;20324;-59
2023/06/16 06:07:46;;;;;;;3.45;3.15;;;24.60;47.50;;;;;;5056483;28;20662;-59
2023/06/16 06:10:11;;;;;;;2.70;2.50;;;24.60;47.50;;;;;;5056083;28;20558;-59
2023/06/16 06:12:37;;;;;;;3.17;2.88;;;24.60;47.50;;;;;;5055489;28;20198;-59
2023/06/16 06:15:03;;;;;;;3.65;3.03;;;24.60;47.50;;;;;;5055784;28;20786;-59
2023/06/16 06:17:28;;;;;;;4.47;3.00;;;24.60;47.60;;;;;;5055991;28;20538;-59
2023/06/16 06:19:54;;;;;;;3.78;3.47;;;24.60;47.60;;;;;;5055175;28;20244;-59
2023/06/16 06:22:20;;;;;;;3.10;2.90;;;24.60;47.60;;;;;;5055932;28;20179;-58
2023/06/16 06:24:45;;;;;;;3.08;2.78;;;24.60;47.60;;;;;;5056137;28;20177;-59
2023/06/16 06:27:12;;;;;;;3.03;2.83;;;24.60;47.60;;;;;;5054921;28;20175;-59
2023/06/16 06:29:37;;;;;;;3.35;3.05;;;24.60;47.60;;;;;;5056027;28;20176;-58
2023/06/16 06:32:07;;;;;;;3.00;2.70;;;24.60;47.70;;;;;;5055529;28;20182;-58
2023/06/16 06:34:34;;;;;;;3.35;3.05;;;24.60;47.70;;;;;;5054952;28;20183;-59
2023/06/16 06:37:00;;;;;;;3.30;3.00;;;24.60;47.70;;;;;;5055490;28;20302;-58
2023/06/16 06:39:25;;;;;;;2.85;2.65;;;24.60;47.70;;;;;;5055820;28;20183;-59
2023/06/16 06:41:51;;;;;;;3.15;2.90;;;24.60;47.80;;;;;;5055121;28;20218;-59
2023/06/16 06:44:17;;;;;;;2.70;2.50;;;24.60;47.80;;;;;;5055304;28;20167;-58
2023/06/16 06:46:42;;;;;;;3.38;3.08;;;24.60;47.80;;;;;;5055018;28;20606;-58
2023/06/16 06:49:08;;;;;;;3.05;2.85;;;24.60;47.80;;;;;;5055160;28;20638;-58
2023/06/16 06:51:33;;;;;;;2.97;2.78;;;24.70;47.90;;;;;;5055502;28;20183;-59
2023/06/16 06:53:59;;;;;;;3.25;3.00;;;24.60;47.80;;;;;;5054393;28;20186;-58
2023/06/16 06:56:25;;;;;;;3.13;2.88;;;24.60;47.80;;;;;;5055481;28;20179;-59
2023/06/16 06:58:51;;;;;;;3.15;2.95;;;24.60;47.90;;;;;;5055180;28;20183;-58
2023/06/16 07:01:16;;;;;;;3.28;2.97;;;24.60;47.90;;;;;;5054244;28;20343;-58
2023/06/16 07:03:42;;;;;;;3.00;2.80;;;24.60;47.90;;;;;;5055163;28;20533;-59
2023/06/16 07:06:07;;;;;;;2.72;2.53;;;24.60;48.00;;;;;;5054877;28;20194;-59
2023/06/16 07:08:33;;;;;;;3.08;2.78;;;24.60;48.00;;;;;;5054509;28;20232;-59
2023/06/16 07:10:58;;;;;;;3.10;2.80;;;24.60;48.00;;;;;;5054904;28;20626;-59
2023/06/16 07:13:24;;;;;;;3.45;3.17;;;24.60;48.00;;;;;;5055126;28;20171;-59
2023/06/16 07:15:50;;;;;;;2.95;2.75;;;24.60;48.00;;;;;;5054270;28;20167;-59
2023/06/16 07:18:15;;;;;;;2.92;2.70;;;24.60;48.00;;;;;;5054596;28;20175;-59
2023/06/16 07:20:41;;;;;;;2.85;2.65;;;24.50;48.00;;;;;;5054632;28;20207;-59
2023/06/16 07:23:06;;;;;;;3.42;3.13;;;24.60;48.10;;;;;;5054029;28;20171;-58
2023/06/16 07:25:36;;;;;;;3.35;3.10;;;24.60;48.00;;;;;;5054829;28;20707;-59
2023/06/16 07:28:01;;;;;;;2.97;2.67;;;24.60;48.00;;;;;;5054459;28;20183;-58
2023/06/16 07:30:27;;;;;;;2.97;2.50;;;24.70;48.00;;;;;;5054047;28;20175;-59
2023/06/16 07:32:53;;;;;;;3.15;2.95;;;24.60;48.00;;;;;;5054624;28;20190;-59
2023/06/16 07:35:19;;;;;;;3.47;3.17;;;24.60;48.00;;;;;;5054249;28;20171;-59
2023/06/16 07:37:45;;;;;;;2.85;2.65;;;24.60;48.00;;;;;;5053690;28;20246;-60
2023/06/16 07:40:13;;;;;;;2.80;2.60;;;24.60;48.00;;;;;;5054215;28;20178;-59
2023/06/16 07:42:45;;;;;;;3.45;3.15;;;24.70;48.00;;;;;;5054638;28;20179;-59
2023/06/16 07:45:13;;;;;;;3.00;2.80;;;24.60;48.00;;;;;;5053570;28;20175;-58
2023/06/16 07:47:39;;;;;;;3.08;2.88;;;24.70;48.00;;;;;;5054443;28;20171;-59
2023/06/16 07:50:06;;;;;;;3.28;2.97;;;24.70;48.00;;;;;;5053561;28;20240;-59
2023/06/16 07:52:31;;;;;;;3.00;2.80;;;24.60;47.90;;;;;;5054459;28;20217;-59
2023/06/16 07:54:57;;;;;;;2.75;2.55;;;24.60;47.90;;;;;;5053991;28;20179;-59
2023/06/16 07:57:22;;;;;;;3.10;2.90;;;24.60;47.90;;;;;;5053454;28;20237;-59
2023/06/16 07:59:48;;;;;;;2.85;2.47;;;24.70;48.00;;;;;;5053999;28;20545;-59
2023/06/16 08:02:13;;;;;;;3.30;2.97;;;24.70;47.90;;;;;;5053837;28;20566;-59
2023/06/16 08:04:39;;;;;;;3.10;2.80;;;24.70;48.50;;;;;;5053506;28;20661;-59
2023/06/16 08:07:05;;;;;;;2.88;2.67;;;24.70;47.80;;;;;;5053715;28;20181;-59
2023/06/16 08:09:31;;;;;;;2.95;2.72;;;24.70;47.80;;;;;;5053956;28;20202;-58
2023/06/16 08:11:56;;;;;;;2.92;2.72;;;24.70;47.80;;;;;;5052941;28;20622;-59
2023/06/16 08:14:22;;;;;;;3.85;2.72;;;24.70;47.80;;;;;;5053889;28;20194;-59
2023/06/16 08:16:47;;;;;;;3.15;2.95;;;24.70;47.80;;;;;;5053614;28;20175;-59
2023/06/16 08:19:13;;;;;;;3.10;2.80;;;24.70;47.70;;;;;;5052468;28;20190;-57
2023/06/16 08:21:38;;;;;;;2.58;2.42;;;24.70;47.80;;;;;;5053877;28;20548;-58
2023/06/16 08:24:05;;;;;;;2.53;2.35;;;24.70;47.70;;;;;;5053299;28;20221;-57
2023/06/16 08:26:30;;;;;;;3.13;2.80;;;24.70;47.70;;;;;;5052892;28;20179;-58
2023/06/16 08:28:56;;;;;;;2.83;2.63;;;24.70;47.70;;;;;;5053463;28;20202;-58
2023/06/16 08:31:21;;;;;;;2.90;2.70;;;24.70;47.60;;;;;;5053645;28;20221;-59
2023/06/16 08:33:47;;;;;;;2.53;2.30;;;24.70;47.60;;;;;;5053059;28;20225;-59
2023/06/16 08:36:12;;;;;;;3.45;3.05;;;24.70;47.60;;;;;;5053017;28;20175;-58
2023/06/16 08:38:38;;;;;;;2.85;2.65;;;24.70;47.60;;;;;;5053526;28;20178;-58
2023/06/16 08:41:06;;;;;;;3.08;2.83;;;24.70;47.50;;;;;;5052271;28;20233;-59
2023/06/16 08:43:34;;;;;;;2.95;2.65;;;24.70;47.50;;;;;;5053240;28;20573;-58
2023/06/16 08:46:00;;;;;;;3.15;2.85;;;24.70;47.50;;;;;;5052113;28;20203;-58
2023/06/16 08:48:26;;;;;;;2.67;2.47;;;24.70;47.50;;;;;;5051397;28;20202;-58
2023/06/16 08:50:52;;;;;;;3.35;3.05;;;24.70;47.40;;;;;;5053252;28;20228;-58
2023/06/16 08:53:18;;;;;;;3.10;2.60;;;24.70;47.40;;;;;;5051186;28;20178;-58
2023/06/16 08:55:44;;;;;;;2.90;2.58;;;24.80;47.50;;;;;;5051876;28;20519;-58
2023/06/16 08:58:12;;;;;;;3.17;2.88;;;24.70;47.40;;;;;;5052949;28;20324;-59
2023/06/16 09:00:39;;;;;;;2.42;2.33;;;24.70;47.40;;;;;;5052474;28;20261;-59
2023/06/16 09:03:05;;;;;;;2.60;2.40;;;24.70;47.30;;;;;;5051817;28;20171;-59
2023/06/16 09:05:31;;;;;;;3.65;2.78;;;24.80;47.40;;;;;;5051894;28;20634;-59
2023/06/16 09:07:57;;;;;;;2.97;2.78;;;24.80;47.40;;;;;;5051985;28;20309;-59
2023/06/16 09:10:22;;;;;;;2.83;2.53;;;24.80;48.00;;;;;;5053008;28;20178;-58
2023/06/16 09:12:52;;;;;;;3.08;2.80;;;24.80;47.40;;;;;;5052752;28;20175;-58
2023/06/16 09:15:17;;;;;;;2.85;2.65;;;24.80;47.30;;;;;;5051962;28;20182;-59
2023/06/16 09:17:44;;;;;;;2.75;2.55;;;24.80;47.30;;;;;;5052892;28;20183;-58
2023/06/16 09:20:15;;;;;;;3.08;2.88;;;24.80;47.30;;;;;;5052663;28;20258;-58
2023/06/16 09:22:41;;;;;;;3.00;2.80;;;24.80;47.30;;;;;;5050919;28;20179;-59
2023/06/16 09:25:09;;;;;;;2.83;2.63;;;24.80;47.30;;;;;;5051351;28;20175;-59
2023/06/16 09:27:48;;;;;;;3.17;2.97;;;24.80;47.30;;;;;;5051550;28;20185;-59
2023/06/16 09:30:16;;;;;;;2.70;2.50;;;24.80;47.20;;;;;;5051808;28;20589;-59
2023/06/16 09:32:42;;;;;;;2.88;2.67;;;24.80;47.20;;;;;;5055482;28;20203;-59
2023/06/16 09:35:30;;;;;;;2.75;2.55;;;24.80;47.20;;;;;;5056763;28;20603;-59
2023/06/16 09:37:57;;;;;;;3.22;2.83;;;24.80;47.20;;;;;;5056455;28;20276;-59
2023/06/16 09:40:27;;;;;;;3.00;2.70;;;24.80;47.10;;;;;;5057152;28;20218;-59
2023/06/16 09:42:53;;;;;;;3.03;2.83;;;24.80;47.10;;;;;;5056133;28;20240;-59
2023/06/16 09:45:20;;;;;;;2.90;2.58;;;24.80;47.10;;;;;;5056339;28;20175;-59
2023/06/16 09:47:46;;;;;;;2.90;2.47;;;24.80;47.10;;;;;;5056622;28;20623;-59
2023/06/16 09:50:13;;;;;;;2.95;2.75;;;24.80;47.00;;;;;;5055622;28;20178;-58
2023/06/16 09:52:41;;;;;;;2.80;2.60;;;24.80;47.10;;;;;;5056820;28;20636;-59
2023/06/16 09:55:07;;;;;;;2.70;2.50;;;24.80;47.00;;;;;;5056404;28;20221;-59
2023/06/16 09:57:32;;;;;;;2.95;2.70;;;24.80;47.00;;;;;;5054709;28;20206;-59
2023/06/16 09:59:58;;;;;;;2.95;2.75;;;24.80;46.90;;;;;;5056119;28;20630;-59
2023/06/16 10:02:23;;;;;;;2.95;2.75;;;24.80;46.90;;;;;;5056485;28;20175;-59
2023/06/16 10:04:51;;;;;;;2.97;2.78;;;24.80;46.90;;;;;;5055565;28;20172;-60
2023/06/16 10:07:16;;;;;;;2.88;2.50;;;24.80;46.80;;;;;;5056132;28;20262;-59
2023/06/16 10:09:44;;;;;;;2.90;2.70;;;24.80;46.80;;;;;;5056747;28;20258;-58
2023/06/16 10:12:11;;;;;;;2.90;2.70;;;24.90;46.80;;;;;;5053829;28;20182;-58
2023/06/16 10:14:37;;;;;;;3.00;2.80;;;24.90;46.80;;;;;;5056236;28;20179;-58
2023/06/16 10:17:05;;;;;;;3.10;2.78;;;24.90;46.70;;;;;;5054518;28;20182;-59
2023/06/16 10:19:30;;;;;;;2.90;2.70;;;24.90;46.70;;;;;;5054105;28;20588;-59
2023/06/16 10:21:56;;;;;;;3.00;2.80;;;24.90;46.60;;;;;;5054419;28;20211;-59
2023/06/16 10:24:22;;;;;;;3.05;2.83;;;24.90;46.70;;;;;;5056197;28;20175;-58
2023/06/16 10:26:48;;;;;;;2.78;2.58;;;24.90;46.60;;;;;;5053959;28;20626;-59
2023/06/16 10:29:16;;;;;;;3.20;2.90;;;24.90;46.60;;;;;;5054430;28;20182;-58
2023/06/16 10:31:43;;;;;;;3.28;2.97;;;24.90;46.50;;;;;;5054660;28;20183;-58
2023/06/16 10:34:16;;;;;;;3.80;2.63;;;25.00;46.60;;;;;;5054898;28;20179;-59
2023/06/16 10:36:41;;;;;;;3.03;2.53;;;25.00;46.50;;;;;;5054553;28;20227;-59
2023/06/16 10:39:08;;;;;;;3.20;3.00;;;25.00;46.50;;;;;;5054891;28;20182;-59
2023/06/16 10:41:34;;;;;;;3.08;2.88;;;25.00;46.40;;;;;;5055445;28;20230;-59
2023/06/16 10:44:25;;;;;;;4.45;2.70;;;25.00;46.40;;;;;;5055069;28;20167;-59
2023/06/16 10:47:09;;;;;;;3.10;2.80;;;25.00;46.30;;;;;;5054741;28;20646;-59
2023/06/16 10:50:00;;;;;;;3.55;2.90;;;25.00;46.30;;;;;;5055471;28;20175;-58
2023/06/16 10:52:28;;;;;;;2.92;2.72;;;25.00;46.20;;;;;;5055420;28;20179;-58
2023/06/16 10:54:55;;;;;;;2.85;2.65;;;25.00;46.10;;;;;;5054612;28;20218;-58
2023/06/16 10:57:21;;;;;;;3.20;3.00;;;25.10;46.20;;;;;;5055616;28;20175;-58
2023/06/16 10:59:56;;;;;;;3.50;3.20;;;25.00;46.10;;;;;;5055436;28;20203;-58
2023/06/16 11:02:27;;;;;;;2.97;2.78;;;25.00;46.10;;;;;;5055192;28;20206;-58
2023/06/16 11:05:08;;;;;;;3.30;3.00;;;25.00;46.10;;;;;;5055357;28;20183;-59
2023/06/16 11:08:01;;;;;;;3.10;2.90;;;25.00;46.10;;;;;;5054461;28;20194;-62
2023/06/16 11:10:27;;;;;;;3.53;2.67;;;25.00;46.10;;;;;;5055369;28;20177;-59
2023/06/16 11:12:52;;;;;;;3.20;3.00;;;25.10;46.10;;;;;;5053959;28;20179;-58
2023/06/16 11:15:21;;;;;;;3.50;3.20;;;25.00;46.40;;;;;;5054106;28;20167;-58
2023/06/16 11:17:49;;;;;;;3.50;3.20;;;25.00;46.10;;;;;;5054863;28;20187;-59
2023/06/16 11:20:15;;;;;;;3.10;2.80;;;25.10;46.00;;;;;;5054722;28;20186;-59
2023/06/16 11:22:42;;;;;;;2.70;2.50;;;25.10;46.00;;;;;;5054336;28;20195;-58
2023/06/16 11:25:08;;;;;;;3.22;3.00;;;25.10;46.10;;;;;;5054670;28;20207;-59
2023/06/16 11:27:33;;;;;;;3.13;2.90;;;25.10;46.10;;;;;;5054865;28;20199;-58
2023/06/16 11:30:01;;;;;;;3.20;3.00;;;25.10;46.10;;;;;;5053712;28;20717;-59
2023/06/16 11:32:28;;;;;;;3.28;2.97;;;25.00;46.10;;;;;;5054756;28;20179;-58
2023/06/16 11:34:55;;;;;;;3.58;3.28;;;25.00;46.10;;;;;;5054860;28;20180;-59
2023/06/16 11:37:20;;;;;;;2.95;2.75;;;25.10;46.20;;;;;;5053647;28;20227;-58
2023/06/16 11:39:46;;;;;;;2.92;2.72;;;25.10;46.10;;;;;;5054808;28;20186;-59
2023/06/16 11:42:13;;;;;;;3.00;2.70;;;25.20;46.00;;;;;;5053508;28;20662;-59
2023/06/16 11:44:38;;;;;;;3.10;2.90;;;25.20;45.90;;;;;;5054484;28;20214;-59
2023/06/16 11:47:04;;;;;;;2.88;2.67;;;25.20;45.90;;;;;;5053900;28;20198;-58
2023/06/16 11:49:31;;;;;;;3.00;2.80;;;25.20;46.00;;;;;;5053558;28;20183;-58
2023/06/16 11:51:56;;;;;;;2.92;2.72;;;25.20;45.90;;;;;;5052972;28;20175;-59
2023/06/16 11:54:22;;;;;;;3.40;3.10;;;25.10;46.00;;;;;;5053593;28;20175;-58
2023/06/16 11:56:50;;;;;;;3.13;2.83;;;25.10;46.00;;;;;;5053637;28;20194;-59
2023/06/16 11:59:16;;;;;;;3.22;2.85;;;25.10;46.00;;;;;;5053914;28;20206;-59
2023/06/16 12:01:43;;;;;;;3.25;2.95;;;25.10;46.00;;;;;;5052805;28;20202;-58
2023/06/16 12:04:08;;;;;;;3.58;3.28;;;25.10;46.10;;;;;;5053209;28;20241;-59
2023/06/16 12:06:35;;;;;;;3.30;3.10;;;25.10;46.00;;;;;;5053089;28;20631;-59
2023/06/16 12:09:03;;;;;;;3.55;3.10;;;25.20;46.00;;;;;;5052636;28;20258;-59
2023/06/16 12:11:28;;;;;;;3.05;2.85;;;25.10;46.60;;;;;;5053322;28;20267;-59
2023/06/16 12:13:54;;;;;;;3.40;3.10;;;25.20;45.90;;;;;;5053813;28;20203;-58
2023/06/16 12:16:20;;;;;;;3.22;3.03;;;25.20;45.80;;;;;;5053580;28;20175;-59
2023/06/16 12:18:48;;;;;;;3.53;3.15;;;25.20;45.80;;;;;;5053053;28;20225;-58
2023/06/16 12:21:18;;;;;;;3.38;3.08;;;25.20;45.80;;;;;;5053670;28;20219;-58
2023/06/16 12:23:53;;;;;;;2.85;2.65;;;25.20;45.80;;;;;;5054097;28;20183;-58
2023/06/16 12:26:31;;;;;;;3.45;3.15;;;25.20;45.90;;;;;;5052862;28;20178;-58
2023/06/16 12:28:57;;;;;;;3.40;3.20;;;25.20;45.80;;;;;;5053271;28;20266;-58
2023/06/16 12:31:26;;;;;;;3.92;3.33;;;25.20;45.90;;;;;;5052971;28;20321;-58
2023/06/16 12:33:56;;;;;;;3.20;2.90;;;25.10;45.90;;;;;;5052467;28;20542;-59
2023/06/16 12:36:22;;;;;;;3.53;3.22;;;25.10;46.00;;;;;;5053449;28;20171;-58
2023/06/16 12:38:47;;;;;;;3.08;2.80;;;25.10;46.00;;;;;;5052908;28;20233;-59
2023/06/16 12:41:15;;;;;;;3.42;3.13;;;25.10;46.10;;;;;;5053078;28;20608;-58
2023/06/16 12:43:47;;;;;;;3.13;2.92;;;25.10;46.10;;;;;;5053539;28;20176;-58
2023/06/16 12:46:13;;;;;;;3.88;3.58;;;25.00;46.00;;;;;;5052419;28;20183;-58